createdAt,value
2024-03-16T00:00:52.583Z,89.75
2024-03-16T00:02:24.313Z,89.29
2024-03-16T00:03:56.065Z,88.86
2024-03-16T00:05:28.782Z,89.40
2024-03-16T00:07:00.614Z,89.30
2024-03-16T00:08:32.413Z,89.68
2024-03-16T00:10:04.563Z,90.04
2024-03-16T00:11:37.019Z,90.29
2024-03-16T00:13:08.864Z,89.97
2024-03-16T00:14:40.596Z,90.35
2024-03-16T00:16:12.885Z,90.91
2024-03-16T00:17:44.640Z,89.48
2024-03-16T00:19:16.470Z,90.51
2024-03-16T00:20:48.158Z,92.46
2024-03-16T00:22:19.902Z,91.59
2024-03-16T00:23:51.655Z,92.44
2024-03-16T00:25:23.533Z,92.93
2024-03-16T00:26:55.409Z,92.83
2024-03-16T00:28:27.132Z,92.16
2024-03-16T00:29:58.803Z,89.74
2024-03-16T00:31:30.496Z,89.71
2024-03-16T00:33:03.041Z,90.41
2024-03-16T00:34:34.709Z,89.08
2024-03-16T00:36:06.584Z,90.29
2024-03-16T00:37:38.235Z,90.63
2024-03-16T00:39:16.528Z,89.28
2024-03-16T00:40:48.543Z,91.19
2024-03-16T00:42:21.240Z,90.49
2024-03-16T00:43:53.561Z,89.95
2024-03-16T00:45:25.337Z,89.99
2024-03-16T00:46:57.038Z,90.99
2024-03-16T00:48:28.747Z,91.00
2024-03-16T00:50:00.503Z,90.81
2024-03-16T00:51:34.204Z,91.18
2024-03-16T00:53:05.933Z,90.90
2024-03-16T00:54:39.522Z,91.65
2024-03-16T00:56:11.259Z,89.47
2024-03-16T00:57:42.992Z,88.04
2024-03-16T00:59:15.278Z,88.91
2024-03-16T01:00:46.948Z,89.49
2024-03-16T01:02:18.973Z,90.69
2024-03-16T01:03:50.709Z,91.78
2024-03-16T01:05:23.189Z,90.77
2024-03-16T01:06:54.951Z,89.64
2024-03-16T01:08:26.653Z,89.01
2024-03-16T01:09:58.435Z,88.76
2024-03-16T01:11:30.822Z,89.57
2024-03-16T01:13:02.542Z,91.46
2024-03-16T01:14:34.379Z,92.54
2024-03-16T01:16:06.212Z,92.08
2024-03-16T01:17:38.493Z,91.22
2024-03-16T01:19:10.190Z,90.55
2024-03-16T01:20:45.294Z,90.03
2024-03-16T01:22:16.916Z,90.04
2024-03-16T01:23:48.620Z,90.79
2024-03-16T01:25:20.787Z,90.37
2024-03-16T01:26:52.517Z,90.21
2024-03-16T01:28:24.202Z,89.89
2024-03-16T01:29:55.840Z,89.14
2024-03-16T01:31:27.681Z,90.08
2024-03-16T01:32:59.312Z,92.50
2024-03-16T01:34:31.032Z,92.48
2024-03-16T01:36:04.487Z,90.96
2024-03-16T01:37:36.095Z,91.03
2024-03-16T01:39:08.048Z,90.81
2024-03-16T01:40:39.755Z,89.97
2024-03-16T01:42:11.440Z,91.06
2024-03-16T01:43:47.400Z,90.32
2024-03-16T01:45:19.387Z,90.50
2024-03-16T01:46:50.992Z,90.77
2024-03-16T01:48:22.587Z,93.61
2024-03-16T01:49:54.178Z,93.61
2024-03-16T01:51:25.817Z,93.85
2024-03-16T01:52:58.213Z,93.77
2024-03-16T01:54:29.945Z,94.20
2024-03-16T01:56:01.677Z,93.87
2024-03-16T01:57:33.374Z,92.90
2024-03-16T01:59:05.128Z,91.30
2024-03-16T02:00:37.103Z,90.72
2024-03-16T02:02:37.394Z,92.52
2024-03-16T02:04:09.050Z,91.34
2024-03-16T02:05:42.897Z,92.89
2024-03-16T02:07:14.644Z,93.15
2024-03-16T02:08:46.434Z,92.07
2024-03-16T02:10:18.885Z,93.18
2024-03-16T02:11:51.063Z,92.57
2024-03-16T02:13:22.816Z,91.56
2024-03-16T02:14:54.438Z,91.71
2024-03-16T02:16:26.168Z,92.03
2024-03-16T02:17:57.804Z,93.03
2024-03-16T02:19:29.449Z,93.95
2024-03-16T02:21:01.097Z,92.78
2024-03-16T02:22:32.698Z,94.39
2024-03-16T02:24:04.559Z,92.97
2024-03-16T02:25:36.263Z,93.38
2024-03-16T02:27:07.981Z,94.11
2024-03-16T02:28:39.651Z,94.31
2024-03-16T02:30:12.013Z,95.22
2024-03-16T02:31:44.664Z,94.36
2024-03-16T02:33:16.714Z,93.42
2024-03-16T02:34:48.448Z,95.67
2024-03-16T02:36:20.077Z,95.43
2024-03-16T02:37:51.751Z,94.75
2024-03-16T02:39:23.376Z,95.73
2024-03-16T02:40:55.016Z,94.34
2024-03-16T02:42:26.765Z,95.74
2024-03-16T02:43:58.387Z,96.20
2024-03-16T02:45:30.289Z,95.54
2024-03-16T02:47:02.455Z,94.75
2024-03-16T02:48:34.182Z,94.03
2024-03-16T02:50:06.355Z,93.96
2024-03-16T02:51:38.286Z,94.35
2024-03-16T02:53:10.062Z,94.42
2024-03-16T02:54:41.895Z,94.90
2024-03-16T02:56:16.125Z,95.10
2024-03-16T02:57:47.798Z,95.89
2024-03-16T02:59:19.639Z,96.35
2024-03-16T03:00:51.299Z,97.05
2024-03-16T03:02:25.604Z,98.17
2024-03-16T03:03:57.531Z,97.51
2024-03-16T03:05:29.181Z,95.80
2024-03-16T03:07:00.801Z,95.15
2024-03-16T03:08:33.516Z,94.71
2024-03-16T03:10:07.853Z,93.90
2024-03-16T03:11:39.710Z,95.47
2024-03-16T03:13:11.427Z,95.83
2024-03-16T03:14:43.167Z,96.16
2024-03-16T03:16:20.445Z,96.01
2024-03-16T03:17:52.123Z,95.70
2024-03-16T03:19:24.087Z,93.68
2024-03-16T03:20:56.286Z,94.19
2024-03-16T03:22:27.982Z,93.97
2024-03-16T03:24:00.818Z,94.16
2024-03-16T03:25:34.856Z,94.02
2024-03-16T03:27:07.165Z,93.08
2024-03-16T03:28:39.059Z,93.61
2024-03-16T03:30:11.576Z,93.42
2024-03-16T03:31:43.203Z,93.18
2024-03-16T03:33:14.828Z,92.87
2024-03-16T03:34:46.461Z,93.05
2024-03-16T03:36:18.082Z,91.67
2024-03-16T03:37:49.671Z,91.53
2024-03-16T03:39:21.306Z,91.59
2024-03-16T03:40:52.934Z,90.92
2024-03-16T03:42:30.725Z,91.27
2024-03-16T03:44:10.320Z,90.87
2024-03-16T03:45:44.850Z,91.24
2024-03-16T03:47:17.186Z,90.33
2024-03-16T03:49:01.117Z,90.22
2024-03-16T03:50:39.818Z,90.36
2024-03-16T03:52:11.550Z,90.23
2024-03-16T03:53:43.225Z,89.68
2024-03-16T03:55:14.892Z,90.12
2024-03-16T03:56:46.568Z,89.27
2024-03-16T03:58:22.174Z,89.23
2024-03-16T03:59:53.790Z,89.11
2024-03-16T04:01:25.536Z,89.14
2024-03-16T04:02:57.191Z,88.81
2024-03-16T04:04:28.873Z,89.10
2024-03-16T04:06:00.497Z,88.53
2024-03-16T04:07:32.323Z,89.27
2024-03-16T04:09:04.321Z,89.62
2024-03-16T04:10:36.954Z,89.37
2024-03-16T04:12:10.483Z,89.15
2024-03-16T04:13:42.902Z,90.09
2024-03-16T04:15:15.479Z,89.67
2024-03-16T04:16:48.811Z,89.84
2024-03-16T04:18:20.513Z,89.57
2024-03-16T04:19:52.888Z,90.08
2024-03-16T04:21:24.522Z,89.86
2024-03-16T04:22:56.250Z,90.09
2024-03-16T04:24:27.981Z,90.31
2024-03-16T04:25:59.695Z,90.04
2024-03-16T04:27:31.645Z,89.94
2024-03-16T04:29:03.850Z,90.49
2024-03-16T04:30:36.108Z,90.13
2024-03-16T04:32:08.107Z,90.06
2024-03-16T04:33:39.725Z,89.07
2024-03-16T04:35:12.756Z,89.57
2024-03-16T04:36:44.435Z,89.45
2024-03-16T04:38:16.077Z,89.42
2024-03-16T04:39:49.060Z,89.27
2024-03-16T04:41:21.011Z,89.24
2024-03-16T04:42:52.792Z,89.13
2024-03-16T04:44:24.748Z,88.85
2024-03-16T04:45:56.515Z,88.92
2024-03-16T04:47:28.128Z,89.07
2024-03-16T04:49:01.161Z,88.67
2024-03-16T04:50:32.832Z,89.55
2024-03-16T04:52:04.569Z,89.07
2024-03-16T04:53:36.289Z,89.41
2024-03-16T04:55:08.347Z,89.56
2024-03-16T04:56:40.146Z,89.11
2024-03-16T04:58:12.009Z,90.23
2024-03-16T04:59:43.776Z,90.68
2024-03-16T05:01:16.507Z,90.54
2024-03-16T05:02:49.458Z,91.27
2024-03-16T05:04:21.050Z,92.17
2024-03-16T05:05:52.758Z,92.45
2024-03-16T05:07:24.395Z,92.60
2024-03-16T05:08:55.996Z,92.45
2024-03-16T05:10:27.749Z,92.15
2024-03-16T05:11:59.445Z,93.68
2024-03-16T05:13:33.441Z,94.05
2024-03-16T05:15:06.757Z,95.02
2024-03-16T05:16:40.825Z,95.30
2024-03-16T05:18:15.372Z,96.18
2024-03-16T05:19:47.825Z,96.78
2024-03-16T05:21:20.182Z,98.23
2024-03-16T05:22:51.782Z,97.71
2024-03-16T05:24:23.390Z,98.55
2024-03-16T05:25:55.107Z,98.71
2024-03-16T05:27:27.230Z,98.12
2024-03-16T05:28:59.112Z,98.47
2024-03-16T05:30:31.103Z,99.40
2024-03-16T05:32:04.390Z,98.94
2024-03-16T05:33:36.086Z,97.91
2024-03-16T05:35:09.781Z,98.71
2024-03-16T05:36:41.609Z,99.06
2024-03-16T05:38:13.263Z,99.21
2024-03-16T05:39:45.115Z,99.42
2024-03-16T05:41:17.075Z,99.32
2024-03-16T05:42:48.699Z,98.64
2024-03-16T05:44:20.298Z,100.00
2024-03-16T05:45:53.493Z,100.00
2024-03-16T05:47:25.269Z,100.00
2024-03-16T05:48:58.060Z,100.00
2024-03-16T05:50:29.756Z,99.62
2024-03-16T05:52:01.408Z,98.33
2024-03-16T05:53:33.198Z,99.90
2024-03-16T05:55:05.831Z,100.00
2024-03-16T05:56:38.636Z,100.00
2024-03-16T05:58:10.390Z,100.00
2024-03-16T05:59:42.108Z,100.00
2024-03-16T06:01:13.816Z,100.00
2024-03-16T06:02:45.463Z,100.00
2024-03-16T06:04:19.038Z,100.00
2024-03-16T06:05:50.690Z,100.00
2024-03-16T06:07:22.436Z,100.00
2024-03-16T06:08:54.171Z,100.00
2024-03-16T06:10:25.826Z,100.00
2024-03-16T06:11:57.572Z,100.00
2024-03-16T06:13:29.247Z,100.00
2024-03-16T06:15:00.898Z,100.00
2024-03-16T06:16:32.511Z,100.00
2024-03-16T06:18:04.722Z,100.00
2024-03-16T06:19:36.363Z,100.00
2024-03-16T06:21:11.042Z,100.00
2024-03-16T06:22:43.033Z,100.00
2024-03-16T06:24:14.934Z,100.00
2024-03-16T06:25:51.060Z,100.00
2024-03-16T06:27:23.576Z,100.00
2024-03-16T06:29:06.828Z,99.59
2024-03-16T06:30:38.843Z,99.33
2024-03-16T06:32:10.605Z,98.68
2024-03-16T06:33:46.857Z,98.58
2024-03-16T06:35:18.634Z,98.89
2024-03-16T06:36:53.233Z,99.53
2024-03-16T06:38:26.052Z,99.62
2024-03-16T06:39:57.958Z,100.00
2024-03-16T06:41:29.632Z,100.00
2024-03-16T06:43:01.429Z,99.35
2024-03-16T06:44:33.535Z,97.43
2024-03-16T06:46:06.877Z,97.18
2024-03-16T06:47:38.593Z,98.72
2024-03-16T06:49:10.383Z,98.91
2024-03-16T06:50:42.096Z,98.17
2024-03-16T06:52:14.107Z,95.88
2024-03-16T06:53:48.464Z,93.53
2024-03-16T06:55:20.726Z,92.63
2024-03-16T06:56:52.629Z,91.14
2024-03-16T06:58:25.736Z,91.78
2024-03-16T06:59:57.333Z,92.95
2024-03-16T07:01:29.984Z,94.21
2024-03-16T07:03:01.713Z,93.75
2024-03-16T07:04:33.411Z,94.45
2024-03-16T07:06:07.605Z,93.95
2024-03-16T07:07:39.313Z,94.77
2024-03-16T07:09:12.243Z,94.15
2024-03-16T07:10:47.514Z,94.74
2024-03-16T07:12:19.235Z,93.74
2024-03-16T07:13:50.870Z,93.51
2024-03-16T07:15:22.679Z,94.23
2024-03-16T07:16:56.083Z,94.02
2024-03-16T07:18:28.184Z,93.38
2024-03-16T07:20:07.576Z,93.56
2024-03-16T07:21:39.349Z,93.42
2024-03-16T07:23:10.981Z,93.21
2024-03-16T07:24:42.686Z,92.96
2024-03-16T07:26:14.574Z,93.40
2024-03-16T07:27:46.287Z,93.73
2024-03-16T07:29:17.969Z,93.57
2024-03-16T07:30:55.922Z,94.71
2024-03-16T07:32:27.611Z,94.54
2024-03-16T07:34:02.409Z,95.03
2024-03-16T07:35:36.630Z,94.39
2024-03-16T07:37:08.403Z,94.34
2024-03-16T07:38:40.100Z,93.09
2024-03-16T07:40:15.399Z,93.32
2024-03-16T07:41:47.161Z,93.27
2024-03-16T07:43:19.169Z,94.09
2024-03-16T07:44:50.857Z,92.46
2024-03-16T07:46:22.585Z,92.52
2024-03-16T07:47:54.327Z,89.70
2024-03-16T07:49:26.130Z,88.19
2024-03-16T07:51:01.184Z,88.72
2024-03-16T07:52:34.492Z,90.15
2024-03-16T07:54:10.092Z,90.67
2024-03-16T07:55:41.795Z,88.08
2024-03-16T07:57:13.547Z,87.27
2024-03-16T07:58:45.214Z,86.76
2024-03-16T08:00:16.918Z,85.66
2024-03-16T08:01:48.713Z,86.74
2024-03-16T08:03:20.554Z,85.52
2024-03-16T08:04:52.165Z,83.02
2024-03-16T08:06:23.855Z,77.12
2024-03-16T08:07:55.556Z,78.67
2024-03-16T08:09:27.795Z,81.08
2024-03-16T08:10:59.517Z,80.67
2024-03-16T08:12:33.456Z,78.32
2024-03-16T08:14:09.666Z,80.38
2024-03-16T08:15:41.345Z,79.60
2024-03-16T08:17:12.987Z,77.85
2024-03-16T08:18:46.300Z,78.30
2024-03-16T08:20:18.289Z,78.59
2024-03-16T08:21:50.260Z,78.79
2024-03-16T08:23:21.962Z,79.89
2024-03-16T08:24:53.727Z,79.41
2024-03-16T08:26:25.364Z,80.21
2024-03-16T08:27:58.140Z,81.08
2024-03-16T08:29:29.899Z,80.03
2024-03-16T08:31:01.878Z,79.66
2024-03-16T08:32:34.169Z,81.71
2024-03-16T08:34:05.886Z,81.17
2024-03-16T08:35:37.560Z,80.88
2024-03-16T08:37:09.213Z,80.35
2024-03-16T08:38:40.887Z,79.48
2024-03-16T08:40:17.088Z,80.11
2024-03-16T08:41:49.186Z,81.04
2024-03-16T08:43:20.978Z,80.92
2024-03-16T08:44:52.838Z,81.11
2024-03-16T08:46:27.797Z,80.85
2024-03-16T08:48:00.035Z,80.16
2024-03-16T08:49:32.486Z,78.44
2024-03-16T08:51:05.827Z,77.74
2024-03-16T08:52:38.461Z,77.13
2024-03-16T08:54:11.854Z,77.26
2024-03-16T08:55:43.722Z,76.15
2024-03-16T08:57:15.331Z,70.73
2024-03-16T08:58:47.842Z,72.06
2024-03-16T09:00:20.071Z,72.95
2024-03-16T09:01:51.861Z,73.93
2024-03-16T09:03:23.598Z,73.80
2024-03-16T09:04:58.040Z,76.06
2024-03-16T09:06:29.722Z,76.53
2024-03-16T09:08:02.216Z,78.43
2024-03-16T09:09:33.968Z,78.17
2024-03-16T09:11:05.706Z,79.79
2024-03-16T09:12:37.697Z,80.44
2024-03-16T09:14:09.667Z,81.36
2024-03-16T09:15:41.380Z,82.72
2024-03-16T09:17:13.042Z,82.97
2024-03-16T09:18:46.235Z,84.33
2024-03-16T09:20:18.034Z,84.32
2024-03-16T09:21:50.429Z,85.20
2024-03-16T09:23:22.129Z,85.73
2024-03-16T09:24:53.889Z,85.31
2024-03-16T09:26:25.741Z,86.44
2024-03-16T09:27:57.390Z,86.26
2024-03-16T09:29:29.377Z,87.42
2024-03-16T09:31:05.369Z,88.31
2024-03-16T09:32:38.213Z,90.34
2024-03-16T09:34:11.234Z,89.74
2024-03-16T09:35:43.412Z,90.49
2024-03-16T09:37:15.731Z,90.85
2024-03-16T09:38:48.678Z,92.52
2024-03-16T09:40:20.558Z,92.30
2024-03-16T09:41:52.275Z,90.56
